Trapani / Birgi Airport LICT

Flugplatz Daten

Name: Trapani / Birgi Airport

Ident: LICT

Lat: 37,91139984

Long: 12,48799992

Platzhöhe: 25 ft

IataCode: TPS

City: Trapani

Metar

2021/12/03 23:55
LICT 032355Z 32015KT 9999 SCT025 14/10 Q1011

Taf

2021/10/13 09:24
TAF TAF LICT 130800Z 1309/1321 26012KT 9999 SCT025 SCT040
TEMPO 1309/1313 SHRA FEW018CB BKN020
TEMPO 1313/1321 5000 TSRA BKN012 FEW018CB
Gewünschte Webcam nicht vorhanden? Dann fügen Sie eine hinzu. Sie wird dann so schnell wie möglich freigeschaltet
Url: Title: